sensor_id;sensor_type;location;lat;lon;timestamp;P1;durP1;ratioP1;P2;durP2;ratioP2
74158;SDS011;62511;47.970;11.774;2023-04-25T00:00:09;10.57;;;5.25;;
74158;SDS011;62511;47.970;11.774;2023-04-25T00:02:43;10.32;;;4.75;;
74158;SDS011;62511;47.970;11.774;2023-04-25T00:05:11;5.50;;;2.67;;
74158;SDS011;62511;47.970;11.774;2023-04-25T00:07:39;3.20;;;1.73;;
74158;SDS011;62511;47.970;11.774;2023-04-25T00:10:07;4.18;;;2.72;;
74158;SDS011;62511;47.970;11.774;2023-04-25T00:12:35;2.97;;;1.65;;
74158;SDS011;62511;47.970;11.774;2023-04-25T00:15:05;7.63;;;3.10;;
74158;SDS011;62511;47.970;11.774;2023-04-25T00:17:32;4.65;;;3.25;;
74158;SDS011;62511;47.970;11.774;2023-04-25T00:20:03;7.20;;;3.40;;
74158;SDS011;62511;47.970;11.774;2023-04-25T00:22:36;6.05;;;3.33;;
74158;SDS011;62511;47.970;11.774;2023-04-25T00:25:08;9.88;;;5.20;;
74158;SDS011;62511;47.970;11.774;2023-04-25T00:27:34;9.90;;;5.10;;
74158;SDS011;62511;47.970;11.774;2023-04-25T00:30:04;10.18;;;4.15;;
74158;SDS011;62511;47.970;11.774;2023-04-25T00:32:30;8.15;;;3.70;;
74158;SDS011;62511;47.970;11.774;2023-04-25T00:35:05;5.78;;;3.47;;
74158;SDS011;62511;47.970;11.774;2023-04-25T00:37:33;7.10;;;3.72;;
74158;SDS011;62511;47.970;11.774;2023-04-25T00:40:01;7.55;;;3.20;;
74158;SDS011;62511;47.970;11.774;2023-04-25T00:42:36;7.90;;;2.90;;
74158;SDS011;62511;47.970;11.774;2023-04-25T00:45:16;4.38;;;2.63;;
74158;SDS011;62511;47.970;11.774;2023-04-25T00:47:44;8.50;;;3.78;;
74158;SDS011;62511;47.970;11.774;2023-04-25T00:50:21;3.97;;;2.20;;
74158;SDS011;62511;47.970;11.774;2023-04-25T00:52:47;2.92;;;2.10;;
74158;SDS011;62511;47.970;11.774;2023-04-25T00:55:17;7.68;;;3.28;;
74158;SDS011;62511;47.970;11.774;2023-04-25T00:57:43;5.95;;;3.00;;
74158;SDS011;62511;47.970;11.774;2023-04-25T01:00:11;7.93;;;4.00;;
74158;SDS011;62511;47.970;11.774;2023-04-25T01:02:39;7.07;;;3.35;;
74158;SDS011;62511;47.970;11.774;2023-04-25T01:05:06;9.85;;;4.70;;
74158;SDS011;62511;47.970;11.774;2023-04-25T01:07:37;7.88;;;3.88;;
74158;SDS011;62511;47.970;11.774;2023-04-25T01:10:04;8.20;;;3.45;;
74158;SDS011;62511;47.970;11.774;2023-04-25T01:12:50;7.35;;;4.70;;
74158;SDS011;62511;47.970;11.774;2023-04-25T01:15:18;6.97;;;3.25;;
74158;SDS011;62511;47.970;11.774;2023-04-25T01:20:11;3.17;;;1.67;;
74158;SDS011;62511;47.970;11.774;2023-04-25T01:22:38;4.55;;;3.17;;
74158;SDS011;62511;47.970;11.774;2023-04-25T01:25:12;6.85;;;3.40;;
74158;SDS011;62511;47.970;11.774;2023-04-25T01:27:38;3.25;;;1.92;;
74158;SDS011;62511;47.970;11.774;2023-04-25T01:30:32;3.78;;;1.60;;
74158;SDS011;62511;47.970;11.774;2023-04-25T01:33:06;2.67;;;1.75;;
74158;SDS011;62511;47.970;11.774;2023-04-25T01:35:33;1.95;;;1.38;;
74158;SDS011;62511;47.970;11.774;2023-04-25T01:38:11;1.77;;;1.50;;
74158;SDS011;62511;47.970;11.774;2023-04-25T01:40:38;2.50;;;1.23;;
74158;SDS011;62511;47.970;11.774;2023-04-25T01:43:10;2.55;;;1.17;;
74158;SDS011;62511;47.970;11.774;2023-04-25T01:45:50;2.47;;;1.25;;
74158;SDS011;62511;47.970;11.774;2023-04-25T01:48:16;1.02;;;0.80;;
74158;SDS011;62511;47.970;11.774;2023-04-25T01:53:13;2.03;;;1.00;;
74158;SDS011;62511;47.970;11.774;2023-04-25T01:56:05;1.13;;;0.88;;
74158;SDS011;62511;47.970;11.774;2023-04-25T01:58:35;2.25;;;1.05;;
74158;SDS011;62511;47.970;11.774;2023-04-25T02:01:04;4.35;;;1.20;;
74158;SDS011;62511;47.970;11.774;2023-04-25T02:03:32;1.65;;;1.17;;
74158;SDS011;62511;47.970;11.774;2023-04-25T02:05:58;1.30;;;1.05;;
74158;SDS011;62511;47.970;11.774;2023-04-25T02:08:42;1.33;;;1.00;;
74158;SDS011;62511;47.970;11.774;2023-04-25T02:11:10;2.20;;;1.10;;
74158;SDS011;62511;47.970;11.774;2023-04-25T02:13:38;1.38;;;1.10;;
74158;SDS011;62511;47.970;11.774;2023-04-25T02:16:04;1.52;;;1.20;;
74158;SDS011;62511;47.970;11.774;2023-04-25T02:18:40;1.77;;;1.13;;
74158;SDS011;62511;47.970;11.774;2023-04-25T02:21:26;1.50;;;1.08;;
74158;SDS011;62511;47.970;11.774;2023-04-25T02:23:57;1.92;;;1.05;;
74158;SDS011;62511;47.970;11.774;2023-04-25T02:26:29;1.40;;;1.30;;
74158;SDS011;62511;47.970;11.774;2023-04-25T02:28:57;1.38;;;0.95;;
74158;SDS011;62511;47.970;11.774;2023-04-25T02:31:24;1.95;;;1.00;;
74158;SDS011;62511;47.970;11.774;2023-04-25T02:36:16;1.65;;;0.90;;
74158;SDS011;62511;47.970;11.774;2023-04-25T02:38:42;1.90;;;1.25;;
74158;SDS011;62511;47.970;11.774;2023-04-25T02:41:33;2.20;;;1.13;;
74158;SDS011;62511;47.970;11.774;2023-04-25T02:44:06;2.20;;;1.33;;
74158;SDS011;62511;47.970;11.774;2023-04-25T02:46:33;1.02;;;0.93;;
74158;SDS011;62511;47.970;11.774;2023-04-25T02:51:43;1.48;;;0.93;;
74158;SDS011;62511;47.970;11.774;2023-04-25T02:54:10;2.30;;;1.75;;
74158;SDS011;62511;47.970;11.774;2023-04-25T02:56:38;2.15;;;1.40;;
74158;SDS011;62511;47.970;11.774;2023-04-25T02:59:06;3.55;;;1.02;;
74158;SDS011;62511;47.970;11.774;2023-04-25T03:01:38;1.88;;;1.20;;
74158;SDS011;62511;47.970;11.774;2023-04-25T03:07:17;3.92;;;1.10;;
74158;SDS011;62511;47.970;11.774;2023-04-25T03:09:46;1.30;;;1.00;;
74158;SDS011;62511;47.970;11.774;2023-04-25T03:12:18;1.85;;;1.08;;
74158;SDS011;62511;47.970;11.774;2023-04-25T03:14:44;1.30;;;0.95;;
74158;SDS011;62511;47.970;11.774;2023-04-25T03:17:13;0.98;;;0.98;;
74158;SDS011;62511;47.970;11.774;2023-04-25T03:19:41;1.60;;;1.02;;
74158;SDS011;62511;47.970;11.774;2023-04-25T03:22:10;1.88;;;1.27;;
74158;SDS011;62511;47.970;11.774;2023-04-25T03:24:46;1.83;;;1.00;;
74158;SDS011;62511;47.970;11.774;2023-04-25T03:27:16;2.03;;;1.00;;
74158;SDS011;62511;47.970;11.774;2023-04-25T03:29:50;1.27;;;0.88;;
74158;SDS011;62511;47.970;11.774;2023-04-25T03:32:16;3.42;;;1.10;;
74158;SDS011;62511;47.970;11.774;2023-04-25T03:34:43;2.83;;;1.10;;
74158;SDS011;62511;47.970;11.774;2023-04-25T03:37:09;2.20;;;0.57;;
74158;SDS011;62511;47.970;11.774;2023-04-25T03:39:38;1.25;;;0.82;;
74158;SDS011;62511;47.970;11.774;2023-04-25T03:42:05;2.30;;;0.90;;
74158;SDS011;62511;47.970;11.774;2023-04-25T03:44:33;0.60;;;0.60;;
74158;SDS011;62511;47.970;11.774;2023-04-25T03:49:48;1.63;;;0.63;;
74158;SDS011;62511;47.970;11.774;2023-04-25T03:52:28;0.60;;;0.60;;
74158;SDS011;62511;47.970;11.774;2023-04-25T03:54:57;1.60;;;0.43;;
74158;SDS011;62511;47.970;11.774;2023-04-25T03:57:24;1.88;;;1.02;;
74158;SDS011;62511;47.970;11.774;2023-04-25T03:59:51;3.05;;;1.10;;
74158;SDS011;62511;47.970;11.774;2023-04-25T04:02:23;1.95;;;1.15;;
74158;SDS011;62511;47.970;11.774;2023-04-25T04:04:50;5.25;;;1.38;;
74158;SDS011;62511;47.970;11.774;2023-04-25T04:07:21;3.47;;;2.20;;
74158;SDS011;62511;47.970;11.774;2023-04-25T04:09:47;4.60;;;1.85;;
74158;SDS011;62511;47.970;11.774;2023-04-25T04:12:15;2.03;;;1.42;;
74158;SDS011;62511;47.970;11.774;2023-04-25T04:14:59;1.50;;;1.40;;
74158;SDS011;62511;47.970;11.774;2023-04-25T04:17:27;1.45;;;0.70;;
74158;SDS011;62511;47.970;11.774;2023-04-25T04:20:03;2.08;;;1.40;;
74158;SDS011;62511;47.970;11.774;2023-04-25T04:22:29;4.57;;;0.95;;
74158;SDS011;62511;47.970;11.774;2023-04-25T04:25:00;4.10;;;1.30;;
74158;SDS011;62511;47.970;11.774;2023-04-25T04:27:33;2.00;;;1.30;;
74158;SDS011;62511;47.970;11.774;2023-04-25T04:30:03;2.22;;;1.80;;
74158;SDS011;62511;47.970;11.774;2023-04-25T04:32:37;2.58;;;1.02;;
74158;SDS011;62511;47.970;11.774;2023-04-25T04:35:04;5.90;;;1.20;;
74158;SDS011;62511;47.970;11.774;2023-04-25T04:37:35;2.08;;;1.50;;
74158;SDS011;62511;47.970;11.774;2023-04-25T04:40:12;3.53;;;1.35;;
74158;SDS011;62511;47.970;11.774;2023-04-25T04:42:42;2.08;;;1.27;;
74158;SDS011;62511;47.970;11.774;2023-04-25T04:45:13;2.47;;;1.50;;
74158;SDS011;62511;47.970;11.774;2023-04-25T04:47:54;1.80;;;1.33;;
74158;SDS011;62511;47.970;11.774;2023-04-25T04:52:47;2.75;;;1.05;;
74158;SDS011;62511;47.970;11.774;2023-04-25T04:55:14;2.92;;;0.65;;
74158;SDS011;62511;47.970;11.774;2023-04-25T04:57:47;1.35;;;1.10;;
74158;SDS011;62511;47.970;11.774;2023-04-25T05:00:16;1.35;;;1.20;;
74158;SDS011;62511;47.970;11.774;2023-04-25T05:02:52;1.98;;;1.17;;
74158;SDS011;62511;47.970;11.774;2023-04-25T05:05:37;3.45;;;0.95;;
74158;SDS011;62511;47.970;11.774;2023-04-25T05:08:05;4.00;;;0.98;;
74158;SDS011;62511;47.970;11.774;2023-04-25T05:10:32;6.15;;;1.05;;
74158;SDS011;62511;47.970;11.774;2023-04-25T05:13:02;2.17;;;1.48;;
74158;SDS011;62511;47.970;11.774;2023-04-25T05:15:29;4.13;;;1.83;;
74158;SDS011;62511;47.970;11.774;2023-04-25T05:18:01;2.50;;;1.10;;
74158;SDS011;62511;47.970;11.774;2023-04-25T05:20:27;2.10;;;1.20;;
74158;SDS011;62511;47.970;11.774;2023-04-25T05:22:57;2.97;;;1.10;;
74158;SDS011;62511;47.970;11.774;2023-04-25T05:25:32;2.75;;;1.33;;
74158;SDS011;62511;47.970;11.774;2023-04-25T05:27:58;2.88;;;0.95;;
74158;SDS011;62511;47.970;11.774;2023-04-25T05:30:27;2.63;;;0.80;;
74158;SDS011;62511;47.970;11.774;2023-04-25T05:33:06;1.85;;;1.05;;
74158;SDS011;62511;47.970;11.774;2023-04-25T05:36:31;1.50;;;1.00;;
74158;SDS011;62511;47.970;11.774;2023-04-25T05:38:57;5.05;;;1.10;;
74158;SDS011;62511;47.970;11.774;2023-04-25T05:41:38;1.40;;;0.98;;
74158;SDS011;62511;47.970;11.774;2023-04-25T05:44:04;1.88;;;0.80;;
74158;SDS011;62511;47.970;11.774;2023-04-25T05:46:34;2.22;;;0.90;;
74158;SDS011;62511;47.970;11.774;2023-04-25T05:49:05;2.80;;;1.17;;
74158;SDS011;62511;47.970;11.774;2023-04-25T05:51:50;2.63;;;0.80;;
74158;SDS011;62511;47.970;11.774;2023-04-25T05:54:16;1.90;;;1.13;;
74158;SDS011;62511;47.970;11.774;2023-04-25T05:57:00;2.40;;;1.08;;
74158;SDS011;62511;47.970;11.774;2023-04-25T05:59:47;2.30;;;1.10;;
74158;SDS011;62511;47.970;11.774;2023-04-25T06:02:13;1.27;;;1.13;;
74158;SDS011;62511;47.970;11.774;2023-04-25T06:04:41;1.48;;;1.10;;
74158;SDS011;62511;47.970;11.774;2023-04-25T06:07:11;1.35;;;1.20;;
74158;SDS011;62511;47.970;11.774;2023-04-25T06:15:22;1.48;;;1.10;;
74158;SDS011;62511;47.970;11.774;2023-04-25T06:17:48;1.15;;;0.88;;
74158;SDS011;62511;47.970;11.774;2023-04-25T06:20:20;3.35;;;1.45;;
74158;SDS011;62511;47.970;11.774;2023-04-25T06:22:48;3.17;;;1.40;;
74158;SDS011;62511;47.970;11.774;2023-04-25T06:25:27;1.33;;;0.95;;
74158;SDS011;62511;47.970;11.774;2023-04-25T06:27:55;1.50;;;1.02;;
74158;SDS011;62511;47.970;11.774;2023-04-25T06:30:25;1.65;;;0.95;;
74158;SDS011;62511;47.970;11.774;2023-04-25T06:32:51;2.75;;;1.48;;
74158;SDS011;62511;47.970;11.774;2023-04-25T06:35:22;3.05;;;1.27;;
74158;SDS011;62511;47.970;11.774;2023-04-25T06:37:48;1.65;;;1.13;;
74158;SDS011;62511;47.970;11.774;2023-04-25T06:40:16;2.53;;;1.40;;
74158;SDS011;62511;47.970;11.774;2023-04-25T06:42:47;4.38;;;1.23;;
74158;SDS011;62511;47.970;11.774;2023-04-25T06:45:25;2.85;;;1.15;;
74158;SDS011;62511;47.970;11.774;2023-04-25T06:47:57;3.80;;;0.90;;
74158;SDS011;62511;47.970;11.774;2023-04-25T06:50:45;1.77;;;0.85;;
74158;SDS011;62511;47.970;11.774;2023-04-25T06:53:11;2.47;;;1.30;;
74158;SDS011;62511;47.970;11.774;2023-04-25T06:55:37;1.38;;;1.20;;
74158;SDS011;62511;47.970;11.774;2023-04-25T06:58:07;1.23;;;0.90;;
74158;SDS011;62511;47.970;11.774;2023-04-25T07:00:38;2.25;;;1.27;;
74158;SDS011;62511;47.970;11.774;2023-04-25T07:03:16;2.80;;;1.30;;
74158;SDS011;62511;47.970;11.774;2023-04-25T07:05:48;1.17;;;0.90;;
74158;SDS011;62511;47.970;11.774;2023-04-25T07:08:23;2.03;;;1.15;;
74158;SDS011;62511;47.970;11.774;2023-04-25T07:10:53;2.10;;;0.82;;
74158;SDS011;62511;47.970;11.774;2023-04-25T07:13:23;2.45;;;1.42;;
74158;SDS011;62511;47.970;11.774;2023-04-25T07:15:52;3.90;;;1.35;;
74158;SDS011;62511;47.970;11.774;2023-04-25T07:18:18;1.00;;;0.90;;
74158;SDS011;62511;47.970;11.774;2023-04-25T07:20:44;3.72;;;1.10;;
74158;SDS011;62511;47.970;11.774;2023-04-25T07:23:16;1.40;;;0.95;;
74158;SDS011;62511;47.970;11.774;2023-04-25T07:25:47;6.70;;;1.63;;
74158;SDS011;62511;47.970;11.774;2023-04-25T07:28:15;2.30;;;1.23;;
74158;SDS011;62511;47.970;11.774;2023-04-25T07:30:44;2.63;;;1.20;;
74158;SDS011;62511;47.970;11.774;2023-04-25T07:33:10;2.85;;;1.38;;
74158;SDS011;62511;47.970;11.774;2023-04-25T07:35:39;1.80;;;1.55;;
74158;SDS011;62511;47.970;11.774;2023-04-25T07:38:06;1.83;;;0.98;;
74158;SDS011;62511;47.970;11.774;2023-04-25T07:40:33;1.02;;;0.70;;
74158;SDS011;62511;47.970;11.774;2023-04-25T07:43:00;4.05;;;0.95;;
74158;SDS011;62511;47.970;11.774;2023-04-25T07:45:26;2.80;;;1.10;;
74158;SDS011;62511;47.970;11.774;2023-04-25T07:47:52;2.10;;;1.05;;
74158;SDS011;62511;47.970;11.774;2023-04-25T07:50:19;1.00;;;0.90;;
74158;SDS011;62511;47.970;11.774;2023-04-25T07:52:45;2.05;;;0.82;;
74158;SDS011;62511;47.970;11.774;2023-04-25T07:55:11;3.72;;;1.55;;
74158;SDS011;62511;47.970;11.774;2023-04-25T07:57:43;1.35;;;0.75;;
74158;SDS011;62511;47.970;11.774;2023-04-25T08:00:13;0.85;;;0.80;;
74158;SDS011;62511;47.970;11.774;2023-04-25T08:02:39;1.20;;;0.88;;
74158;SDS011;62511;47.970;11.774;2023-04-25T08:05:09;1.33;;;0.95;;
74158;SDS011;62511;47.970;11.774;2023-04-25T08:07:57;0.82;;;0.60;;
74158;SDS011;62511;47.970;11.774;2023-04-25T08:10:25;2.25;;;0.80;;
74158;SDS011;62511;47.970;11.774;2023-04-25T08:12:55;2.33;;;0.98;;
74158;SDS011;62511;47.970;11.774;2023-04-25T08:15:23;2.33;;;0.85;;
74158;SDS011;62511;47.970;11.774;2023-04-25T08:17:50;1.85;;;1.10;;
74158;SDS011;62511;47.970;11.774;2023-04-25T08:20:16;3.28;;;0.85;;
74158;SDS011;62511;47.970;11.774;2023-04-25T08:22:44;1.35;;;0.95;;
74158;SDS011;62511;47.970;11.774;2023-04-25T08:25:13;3.05;;;1.17;;
74158;SDS011;62511;47.970;11.774;2023-04-25T08:27:40;0.80;;;0.73;;
74158;SDS011;62511;47.970;11.774;2023-04-25T08:30:08;2.15;;;1.00;;
74158;SDS011;62511;47.970;11.774;2023-04-25T08:32:37;2.58;;;0.80;;
74158;SDS011;62511;47.970;11.774;2023-04-25T08:35:06;2.55;;;0.70;;
74158;SDS011;62511;47.970;11.774;2023-04-25T08:37:32;1.08;;;0.70;;
74158;SDS011;62511;47.970;11.774;2023-04-25T08:39:58;0.77;;;0.75;;
74158;SDS011;62511;47.970;11.774;2023-04-25T08:42:24;2.22;;;0.63;;
74158;SDS011;62511;47.970;11.774;2023-04-25T08:44:53;1.00;;;0.82;;
74158;SDS011;62511;47.970;11.774;2023-04-25T08:47:21;2.83;;;0.52;;
74158;SDS011;62511;47.970;11.774;2023-04-25T08:49:48;0.93;;;0.85;;
74158;SDS011;62511;47.970;11.774;2023-04-25T08:52:21;0.98;;;0.80;;
74158;SDS011;62511;47.970;11.774;2023-04-25T08:54:48;0.95;;;0.60;;
74158;SDS011;62511;47.970;11.774;2023-04-25T08:57:15;0.88;;;0.77;;
74158;SDS011;62511;47.970;11.774;2023-04-25T08:59:42;1.23;;;0.65;;
74158;SDS011;62511;47.970;11.774;2023-04-25T09:02:11;7.03;;;2.28;;
74158;SDS011;62511;47.970;11.774;2023-04-25T09:04:43;1.25;;;0.80;;
74158;SDS011;62511;47.970;11.774;2023-04-25T09:07:09;1.05;;;0.70;;
74158;SDS011;62511;47.970;11.774;2023-04-25T09:09:35;0.40;;;0.40;;
74158;SDS011;62511;47.970;11.774;2023-04-25T09:12:02;0.98;;;0.65;;
74158;SDS011;62511;47.970;11.774;2023-04-25T09:14:30;1.02;;;0.70;;
74158;SDS011;62511;47.970;11.774;2023-04-25T09:17:00;1.48;;;1.00;;
74158;SDS011;62511;47.970;11.774;2023-04-25T09:19:28;1.02;;;0.77;;
74158;SDS011;62511;47.970;11.774;2023-04-25T09:21:57;3.08;;;1.35;;
74158;SDS011;62511;47.970;11.774;2023-04-25T09:24:33;4.43;;;1.42;;
74158;SDS011;62511;47.970;11.774;2023-04-25T09:30:04;1.50;;;1.00;;
74158;SDS011;62511;47.970;11.774;2023-04-25T09:32:38;1.48;;;0.90;;
74158;SDS011;62511;47.970;11.774;2023-04-25T09:35:05;0.90;;;0.80;;
74158;SDS011;62511;47.970;11.774;2023-04-25T09:37:33;2.90;;;1.52;;
74158;SDS011;62511;47.970;11.774;2023-04-25T09:40:00;2.67;;;1.25;;
74158;SDS011;62511;47.970;11.774;2023-04-25T09:42:34;2.38;;;0.80;;
74158;SDS011;62511;47.970;11.774;2023-04-25T09:45:02;1.77;;;1.13;;
74158;SDS011;62511;47.970;11.774;2023-04-25T09:47:30;1.70;;;1.15;;
74158;SDS011;62511;47.970;11.774;2023-04-25T09:49:57;1.95;;;1.30;;
74158;SDS011;62511;47.970;11.774;2023-04-25T09:52:25;1.25;;;0.85;;
74158;SDS011;62511;47.970;11.774;2023-04-25T09:54:51;1.27;;;0.90;;
74158;SDS011;62511;47.970;11.774;2023-04-25T09:57:19;1.08;;;0.70;;
74158;SDS011;62511;47.970;11.774;2023-04-25T09:59:52;1.05;;;0.80;;
74158;SDS011;62511;47.970;11.774;2023-04-25T10:02:18;2.08;;;1.00;;
74158;SDS011;62511;47.970;11.774;2023-04-25T10:04:54;1.60;;;0.90;;
74158;SDS011;62511;47.970;11.774;2023-04-25T10:07:29;0.90;;;0.50;;
74158;SDS011;62511;47.970;11.774;2023-04-25T10:10:03;1.48;;;0.88;;
74158;SDS011;62511;47.970;11.774;2023-04-25T10:12:36;0.70;;;0.70;;
74158;SDS011;62511;47.970;11.774;2023-04-25T10:15:12;1.85;;;0.80;;
74158;SDS011;62511;47.970;11.774;2023-04-25T10:20:06;0.40;;;0.40;;
74158;SDS011;62511;47.970;11.774;2023-04-25T10:22:36;4.13;;;1.00;;
74158;SDS011;62511;47.970;11.774;2023-04-25T10:25:02;2.88;;;1.00;;
74158;SDS011;62511;47.970;11.774;2023-04-25T10:27:32;2.47;;;0.73;;
74158;SDS011;62511;47.970;11.774;2023-04-25T10:30:15;1.13;;;0.70;;
74158;SDS011;62511;47.970;11.774;2023-04-25T10:32:44;2.38;;;0.75;;
74158;SDS011;62511;47.970;11.774;2023-04-25T10:35:27;1.00;;;0.75;;
74158;SDS011;62511;47.970;11.774;2023-04-25T10:38:00;1.98;;;0.80;;
74158;SDS011;62511;47.970;11.774;2023-04-25T10:40:29;1.23;;;0.68;;
74158;SDS011;62511;47.970;11.774;2023-04-25T10:42:55;1.42;;;0.70;;
74158;SDS011;62511;47.970;11.774;2023-04-25T10:45:21;1.83;;;0.90;;
74158;SDS011;62511;47.970;11.774;2023-04-25T10:48:26;1.25;;;0.73;;
74158;SDS011;62511;47.970;11.774;2023-04-25T10:51:10;0.90;;;0.65;;
74158;SDS011;62511;47.970;11.774;2023-04-25T10:53:40;1.25;;;0.93;;
74158;SDS011;62511;47.970;11.774;2023-04-25T10:56:48;1.10;;;0.65;;
74158;SDS011;62511;47.970;11.774;2023-04-25T11:01:51;0.95;;;0.70;;
74158;SDS011;62511;47.970;11.774;2023-04-25T11:09:34;1.33;;;0.82;;
74158;SDS011;62511;47.970;11.774;2023-04-25T11:12:01;1.33;;;0.85;;
74158;SDS011;62511;47.970;11.774;2023-04-25T11:14:27;3.25;;;1.48;;
74158;SDS011;62511;47.970;11.774;2023-04-25T11:16:57;3.53;;;1.67;;
74158;SDS011;62511;47.970;11.774;2023-04-25T11:19:25;6.78;;;3.78;;
74158;SDS011;62511;47.970;11.774;2023-04-25T11:24:17;1.05;;;0.85;;
74158;SDS011;62511;47.970;11.774;2023-04-25T11:26:46;0.70;;;0.70;;
74158;SDS011;62511;47.970;11.774;2023-04-25T11:29:23;0.55;;;0.52;;
74158;SDS011;62511;47.970;11.774;2023-04-25T11:31:52;1.23;;;0.88;;
74158;SDS011;62511;47.970;11.774;2023-04-25T11:34:18;1.20;;;0.75;;
74158;SDS011;62511;47.970;11.774;2023-04-25T11:36:45;1.15;;;0.60;;
74158;SDS011;62511;47.970;11.774;2023-04-25T11:39:11;2.85;;;1.15;;
74158;SDS011;62511;47.970;11.774;2023-04-25T11:41:38;1.30;;;0.95;;
74158;SDS011;62511;47.970;11.774;2023-04-25T11:44:04;1.80;;;1.25;;
74158;SDS011;62511;47.970;11.774;2023-04-25T11:46:33;1.92;;;1.08;;
74158;SDS011;62511;47.970;11.774;2023-04-25T11:49:00;0.55;;;0.55;;
74158;SDS011;62511;47.970;11.774;2023-04-25T11:51:27;5.32;;;0.98;;
74158;SDS011;62511;47.970;11.774;2023-04-25T11:53:53;3.38;;;1.38;;
74158;SDS011;62511;47.970;11.774;2023-04-25T11:56:23;2.72;;;1.20;;
74158;SDS011;62511;47.970;11.774;2023-04-25T11:58:58;2.50;;;1.27;;
74158;SDS011;62511;47.970;11.774;2023-04-25T12:01:32;2.70;;;1.00;;
74158;SDS011;62511;47.970;11.774;2023-04-25T12:04:20;0.60;;;0.60;;
74158;SDS011;62511;47.970;11.774;2023-04-25T12:06:51;1.40;;;1.00;;
74158;SDS011;62511;47.970;11.774;2023-04-25T12:09:19;1.58;;;0.77;;
74158;SDS011;62511;47.970;11.774;2023-04-25T12:11:52;2.20;;;1.42;;
74158;SDS011;62511;47.970;11.774;2023-04-25T12:14:37;0.50;;;0.50;;
74158;SDS011;62511;47.970;11.774;2023-04-25T12:17:03;1.95;;;1.33;;
74158;SDS011;62511;47.970;11.774;2023-04-25T12:19:38;1.40;;;1.10;;
74158;SDS011;62511;47.970;11.774;2023-04-25T12:22:29;1.50;;;1.20;;
74158;SDS011;62511;47.970;11.774;2023-04-25T12:24:58;2.40;;;1.27;;
74158;SDS011;62511;47.970;11.774;2023-04-25T12:27:37;1.90;;;1.02;;
74158;SDS011;62511;47.970;11.774;2023-04-25T12:30:09;1.40;;;1.08;;
74158;SDS011;62511;47.970;11.774;2023-04-25T12:32:40;1.08;;;0.75;;
74158;SDS011;62511;47.970;11.774;2023-04-25T12:35:13;2.03;;;1.20;;
74158;SDS011;62511;47.970;11.774;2023-04-25T12:37:42;1.17;;;0.90;;
74158;SDS011;62511;47.970;11.774;2023-04-25T12:40:09;0.70;;;0.60;;
74158;SDS011;62511;47.970;11.774;2023-04-25T12:43:10;3.33;;;0.77;;
74158;SDS011;62511;47.970;11.774;2023-04-25T12:45:36;1.30;;;0.80;;
74158;SDS011;62511;47.970;11.774;2023-04-25T12:48:20;0.80;;;0.55;;
74158;SDS011;62511;47.970;11.774;2023-04-25T12:50:47;0.75;;;0.68;;
74158;SDS011;62511;47.970;11.774;2023-04-25T12:53:18;0.85;;;0.70;;
74158;SDS011;62511;47.970;11.774;2023-04-25T12:55:49;1.17;;;0.63;;
74158;SDS011;62511;47.970;11.774;2023-04-25T12:58:18;0.70;;;0.55;;
74158;SDS011;62511;47.970;11.774;2023-04-25T13:00:45;1.27;;;0.63;;
74158;SDS011;62511;47.970;11.774;2023-04-25T13:03:11;0.45;;;0.40;;
74158;SDS011;62511;47.970;11.774;2023-04-25T13:05:39;0.50;;;0.50;;
74158;SDS011;62511;47.970;11.774;2023-04-25T13:08:22;0.43;;;0.43;;
74158;SDS011;62511;47.970;11.774;2023-04-25T13:10:50;0.25;;;0.25;;
74158;SDS011;62511;47.970;11.774;2023-04-25T13:13:19;0.68;;;0.43;;
74158;SDS011;62511;47.970;11.774;2023-04-25T13:16:04;0.28;;;0.28;;
74158;SDS011;62511;47.970;11.774;2023-04-25T13:18:31;0.47;;;0.30;;
74158;SDS011;62511;47.970;11.774;2023-04-25T13:20:57;0.40;;;0.30;;
74158;SDS011;62511;47.970;11.774;2023-04-25T13:23:26;0.77;;;0.30;;
74158;SDS011;62511;47.970;11.774;2023-04-25T13:25:53;0.32;;;0.32;;
74158;SDS011;62511;47.970;11.774;2023-04-25T13:28:20;0.32;;;0.32;;
74158;SDS011;62511;47.970;11.774;2023-04-25T13:30:47;0.50;;;0.38;;
74158;SDS011;62511;47.970;11.774;2023-04-25T13:33:17;0.30;;;0.30;;
74158;SDS011;62511;47.970;11.774;2023-04-25T13:35:44;0.52;;;0.40;;
74158;SDS011;62511;47.970;11.774;2023-04-25T13:38:12;0.10;;;0.10;;
74158;SDS011;62511;47.970;11.774;2023-04-25T13:40:45;0.20;;;0.20;;
74158;SDS011;62511;47.970;11.774;2023-04-25T13:43:13;0.40;;;0.20;;
74158;SDS011;62511;47.970;11.774;2023-04-25T13:45:39;0.38;;;0.38;;
74158;SDS011;62511;47.970;11.774;2023-04-25T13:48:08;0.35;;;0.35;;
74158;SDS011;62511;47.970;11.774;2023-04-25T13:50:39;0.65;;;0.30;;
74158;SDS011;62511;47.970;11.774;2023-04-25T13:53:10;0.30;;;0.22;;
74158;SDS011;62511;47.970;11.774;2023-04-25T13:58:08;0.50;;;0.50;;
74158;SDS011;62511;47.970;11.774;2023-04-25T14:00:39;0.73;;;0.40;;
74158;SDS011;62511;47.970;11.774;2023-04-25T14:03:12;0.20;;;0.20;;
74158;SDS011;62511;47.970;11.774;2023-04-25T14:05:48;0.30;;;0.30;;
74158;SDS011;62511;47.970;11.774;2023-04-25T14:08:16;0.30;;;0.30;;
74158;SDS011;62511;47.970;11.774;2023-04-25T14:10:47;0.30;;;0.30;;
74158;SDS011;62511;47.970;11.774;2023-04-25T14:13:13;0.82;;;0.52;;
74158;SDS011;62511;47.970;11.774;2023-04-25T14:15:43;0.35;;;0.30;;
74158;SDS011;62511;47.970;11.774;2023-04-25T14:18:09;1.20;;;0.60;;
74158;SDS011;62511;47.970;11.774;2023-04-25T14:20:35;0.57;;;0.57;;
74158;SDS011;62511;47.970;11.774;2023-04-25T14:25:29;0.30;;;0.30;;
74158;SDS011;62511;47.970;11.774;2023-04-25T14:27:57;0.35;;;0.20;;
74158;SDS011;62511;47.970;11.774;2023-04-25T14:30:29;0.30;;;0.22;;
74158;SDS011;62511;47.970;11.774;2023-04-25T14:32:56;0.50;;;0.50;;
74158;SDS011;62511;47.970;11.774;2023-04-25T14:35:23;1.20;;;0.22;;
74158;SDS011;62511;47.970;11.774;2023-04-25T14:37:52;0.80;;;0.40;;
74158;SDS011;62511;47.970;11.774;2023-04-25T14:40:18;0.93;;;0.45;;
74158;SDS011;62511;47.970;11.774;2023-04-25T14:42:48;0.77;;;0.40;;
74158;SDS011;62511;47.970;11.774;2023-04-25T14:45:34;0.20;;;0.20;;
74158;SDS011;62511;47.970;11.774;2023-04-25T14:48:05;0.35;;;0.35;;
74158;SDS011;62511;47.970;11.774;2023-04-25T14:50:32;0.40;;;0.30;;
74158;SDS011;62511;47.970;11.774;2023-04-25T14:53:02;0.75;;;0.50;;
74158;SDS011;62511;47.970;11.774;2023-04-25T14:55:28;0.65;;;0.15;;
74158;SDS011;62511;47.970;11.774;2023-04-25T14:57:55;0.38;;;0.38;;
74158;SDS011;62511;47.970;11.774;2023-04-25T15:00:24;1.08;;;0.55;;
74158;SDS011;62511;47.970;11.774;2023-04-25T15:02:51;0.30;;;0.30;;
74158;SDS011;62511;47.970;11.774;2023-04-25T15:05:20;0.35;;;0.35;;
74158;SDS011;62511;47.970;11.774;2023-04-25T15:07:48;0.43;;;0.30;;
74158;SDS011;62511;47.970;11.774;2023-04-25T15:10:17;0.52;;;0.50;;
74158;SDS011;62511;47.970;11.774;2023-04-25T15:12:48;0.47;;;0.43;;
74158;SDS011;62511;47.970;11.774;2023-04-25T15:15:15;0.47;;;0.47;;
74158;SDS011;62511;47.970;11.774;2023-04-25T15:17:42;0.57;;;0.40;;
74158;SDS011;62511;47.970;11.774;2023-04-25T15:20:09;0.50;;;0.32;;
74158;SDS011;62511;47.970;11.774;2023-04-25T15:22:39;0.50;;;0.50;;
74158;SDS011;62511;47.970;11.774;2023-04-25T15:25:17;0.50;;;0.50;;
74158;SDS011;62511;47.970;11.774;2023-04-25T15:27:46;2.25;;;0.60;;
74158;SDS011;62511;47.970;11.774;2023-04-25T15:30:17;0.47;;;0.47;;
74158;SDS011;62511;47.970;11.774;2023-04-25T15:33:27;0.50;;;0.50;;
74158;SDS011;62511;47.970;11.774;2023-04-25T15:35:53;1.08;;;0.70;;
74158;SDS011;62511;47.970;11.774;2023-04-25T15:38:20;0.70;;;0.70;;